Daglege Rapportar

Klikk her for oppdatering!


Detaljar i dag

20/9/18
Time         Wind Dir   Wind Spd  Wind Gust   Humidity       Temp  Raw Barom   Tot Rain Temp Out H Temp Out L  DailyRain   HourRain
                            mps        mps          %         C         mb         mm         C         C         mm         mm
0:00                0          0          0         55       13.8     980.04    1255.00       13.8       13.8       0.00       0.00
1:00                0          0          0         64       11.9     982.04    1255.00       13.9       11.9       0.00       0.00
2:00                0          0          0         50       12.7     982.04    1255.00       13.9       11.9       0.00       0.00
3:00                0          0          0         47       13.0     983.04    1255.00       13.9       11.9       0.00       0.00
4:00                0          0          0         73       10.4     984.04    1255.00       13.9        9.3       0.00       0.00
5:00                0          0          0         69       10.4     984.04    1255.00       13.9        9.3       0.00       0.00
6:00                0          0          0         70       10.5     985.04    1255.00       13.9        9.3       0.00       0.00
7:00                0          0          0         57       11.5     985.04    1255.00       13.9        9.3       0.00       0.00
8:00                0          0          0         57       11.1     986.04    1255.00       13.9        9.3       0.00       0.00
9:00                0          0          0         60       11.5     985.04    1255.00       13.9        9.3       0.00       0.00
10:00               0          0          0         69       10.5     986.04    1255.00       13.9        9.3       0.00       0.00
11:00               0          0          0         71       10.0     987.04    1255.00       13.9        9.3       0.00       0.00
12:00               0          0          0         73       10.9     987.04    1255.00       13.9        9.3       0.00       0.00

 


Detaljar i gr

19/9/18
Time         Wind Dir   Wind Spd  Wind Gust   Humidity       Temp  Raw Barom   Tot Rain Temp Out H Temp Out L  DailyRain   HourRain
                            mps        mps          %         C         mb         mm         C         C         mm         mm
0:00                0          0          0         91       14.5     985.04    1255.00       14.5       14.5       0.00       0.00
1:00                0          0          0         92       14.2     985.04    1255.00       14.5       13.7       0.00       0.00
2:00                0          0          0         93       14.8     986.04    1255.00       14.8       13.7       0.00       0.00
3:00                0          0          0         93       15.2     987.04    1255.00       15.2       13.7       0.00       0.00
4:00                0          0          0         81       16.3     988.04    1255.00       16.3       13.7       0.00       0.00
5:00                0          0          0         78       15.4     988.04    1255.00       16.8       13.7       0.00       0.00
6:00                0          0          0         67       16.0     989.04    1255.00       16.8       13.7       0.00       0.00
7:00                0          0          0         63       16.0     989.04    1255.00       16.8       13.7       0.00       0.00
8:00                0          0          0         78       14.3     989.04    1255.00       16.8       13.7       0.00       0.00
9:00                0          0          0         78       14.6     990.04    1255.00       16.8       13.7       0.00       0.00
10:00               0          0          0         53       16.0     990.04    1255.00       16.8       13.7       0.00       0.00
11:00               0          0          0         46       17.2     991.04    1255.00       17.2       13.7       0.00       0.00
12:00               0          0          0         45       18.2     990.04    1255.00       18.4       13.7       0.00       0.00
13:00               0          0          0         41       20.0     990.04    1255.00       20.1       13.7       0.00       0.00
14:00               0          0          0         37       19.5     990.04    1255.00       20.9       13.7       0.00       0.00
15:00               0          0          0         34       21.5     990.04    1255.00       21.5       13.7       0.00       0.00
16:00               0          0          0         36       18.8     988.04    1255.00       21.6       13.7       0.00       0.00
17:00               0          0          0         48       16.6     987.04    1255.00       21.6       13.7       0.00       0.00
18:00               0          0          0         36       17.5     984.04    1255.00       21.6       13.7       0.00       0.00
19:00               0          0          0         43       16.6     982.04    1255.00       21.6       13.7       0.00       0.00
20:00               0          0          0         56       15.7     981.04    1255.00       21.6       13.7       0.00       0.00
21:00               0          0          0         79       13.6     979.04    1255.00       21.6       13.6       0.00       0.00
22:00               0          0          0         79       13.2     979.04    1255.00       21.6       13.2       0.00       0.00
23:00               0          0          0         48       15.3     979.04    1255.00       21.6       13.2       0.00       0.00